createdAt,value
2023-03-11T00:00:10.229Z,3422.00
2023-03-11T00:01:10.295Z,3443.00
2023-03-11T00:02:10.331Z,3441.00
2023-03-11T00:03:10.358Z,3410.00
2023-03-11T00:04:10.411Z,3256.00
2023-03-11T00:05:10.480Z,3161.00
2023-03-11T00:06:10.521Z,3213.00
2023-03-11T00:07:10.570Z,3202.00
2023-03-11T00:08:10.635Z,3439.00
2023-03-11T00:09:10.705Z,3776.00
2023-03-11T00:10:10.757Z,4047.00
2023-03-11T00:11:10.823Z,4265.00
2023-03-11T00:12:10.867Z,4494.00
2023-03-11T00:13:10.935Z,4598.00
2023-03-11T00:14:11.054Z,4571.00
2023-03-11T00:15:11.037Z,4583.00
2023-03-11T00:16:11.133Z,4658.00
2023-03-11T00:17:11.145Z,4583.00
2023-03-11T00:18:11.205Z,4285.00
2023-03-11T00:19:11.246Z,3799.00
2023-03-11T00:20:11.266Z,3677.00
2023-03-11T00:21:11.320Z,3322.00
2023-03-11T00:22:11.373Z,2956.00
2023-03-11T00:23:11.407Z,2774.00
2023-03-11T00:24:11.448Z,2750.00
2023-03-11T00:25:11.482Z,2945.00
2023-03-11T00:26:11.514Z,3094.00
2023-03-11T00:27:11.538Z,3214.00
2023-03-11T00:28:11.574Z,3101.00
2023-03-11T00:29:11.589Z,2765.00
2023-03-11T00:30:11.615Z,2502.00
2023-03-11T00:31:11.674Z,2507.00
2023-03-11T00:32:11.677Z,2686.00
2023-03-11T00:33:11.697Z,3019.00
2023-03-11T00:34:11.700Z,3233.00
2023-03-11T00:35:11.754Z,3263.00
2023-03-11T00:36:11.863Z,3604.00
2023-03-11T00:37:11.916Z,3878.00
2023-03-11T00:38:12.755Z,4123.00
2023-03-11T00:39:12.020Z,4195.00
2023-03-11T00:40:12.060Z,4115.00
2023-03-11T00:41:12.106Z,4024.00
2023-03-11T00:42:12.147Z,4060.00
2023-03-11T00:43:12.201Z,4134.00
2023-03-11T00:44:12.225Z,4241.00
2023-03-11T00:45:12.285Z,4242.00
2023-03-11T00:46:12.362Z,4256.00
2023-03-11T00:47:12.394Z,4266.00
2023-03-11T00:48:12.454Z,4226.00
2023-03-11T00:49:12.511Z,4084.00
2023-03-11T00:50:12.570Z,3686.00
2023-03-11T00:51:12.720Z,3296.00
2023-03-11T00:52:12.684Z,2938.00
2023-03-11T00:53:12.736Z,2895.00
2023-03-11T00:54:12.778Z,3288.00
2023-03-11T00:55:12.805Z,3537.00
2023-03-11T00:56:12.844Z,3753.00
2023-03-11T00:57:12.856Z,3774.00
2023-03-11T00:58:12.944Z,3821.00
2023-03-11T00:59:12.984Z,3591.00
2023-03-11T01:00:13.008Z,3526.00
2023-03-11T01:01:13.049Z,3641.00
2023-03-11T01:02:13.040Z,3748.00
2023-03-11T01:03:13.052Z,3788.00
2023-03-11T01:04:13.124Z,3931.00
2023-03-11T01:05:13.100Z,4072.00
2023-03-11T01:06:13.107Z,4025.00
2023-03-11T01:07:13.139Z,3956.00
2023-03-11T01:08:13.151Z,3506.00
2023-03-11T01:09:13.183Z,3246.00
2023-03-11T01:10:13.215Z,3218.00
2023-03-11T01:11:13.231Z,3365.00
2023-03-11T01:12:13.276Z,3456.00
2023-03-11T01:13:13.310Z,3575.00
2023-03-11T01:14:13.455Z,3531.00
2023-03-11T01:15:13.373Z,3497.00
2023-03-11T01:16:13.503Z,3535.00
2023-03-11T01:17:13.417Z,3655.00
2023-03-11T01:18:13.448Z,3767.00
2023-03-11T01:19:13.447Z,3974.00
2023-03-11T01:20:13.491Z,4104.00
2023-03-11T01:21:13.489Z,3820.00
2023-03-11T01:22:13.518Z,3709.00
2023-03-11T01:23:13.561Z,3626.00
2023-03-11T01:24:13.550Z,3540.00
2023-03-11T01:25:13.597Z,3420.00
2023-03-11T01:26:13.665Z,3220.00
2023-03-11T01:27:13.840Z,2816.00
2023-03-11T01:28:14.009Z,2510.00
2023-03-11T01:29:14.156Z,2417.00
2023-03-11T01:30:14.333Z,2399.00
2023-03-11T01:31:14.509Z,2597.00
2023-03-11T01:32:14.691Z,2982.00
2023-03-11T01:33:14.786Z,3345.00
2023-03-11T01:34:14.953Z,3212.00
2023-03-11T01:35:15.092Z,3287.00
2023-03-11T01:58:19.263Z,2855.00
2023-03-11T01:59:19.096Z,2784.00
2023-03-11T02:00:19.250Z,2247.00
2023-03-11T02:01:19.385Z,1816.00
2023-03-11T02:02:19.418Z,1729.00
2023-03-11T02:03:19.548Z,1697.00
2023-03-11T02:04:19.511Z,1858.00
2023-03-11T02:05:19.553Z,2075.00
2023-03-11T02:06:19.594Z,2257.00
2023-03-11T02:07:19.634Z,2677.00
2023-03-11T02:08:19.684Z,2928.00
2023-03-11T02:09:19.714Z,2988.00
2023-03-11T02:10:19.765Z,3000.00
2023-03-11T02:11:19.778Z,3205.00
2023-03-11T02:12:19.818Z,3301.00
2023-03-11T02:13:19.860Z,3326.00
2023-03-11T02:14:19.887Z,3185.00
2023-03-11T02:15:19.932Z,2986.00
2023-03-11T02:16:20.004Z,3060.00
2023-03-11T02:17:20.024Z,2471.00
2023-03-11T02:18:20.061Z,2114.00
2023-03-11T02:19:20.111Z,1963.00
2023-03-11T02:20:20.156Z,1775.00
2023-03-11T02:21:20.220Z,1610.00
2023-03-11T02:22:20.290Z,1597.00
2023-03-11T02:23:20.351Z,1302.00
2023-03-11T02:24:20.403Z,1149.00
2023-03-11T02:26:20.491Z,658.00
2023-03-11T02:27:20.546Z,656.00
2023-03-11T02:28:20.565Z,751.00
2023-03-11T02:29:20.632Z,619.00
2023-03-11T02:30:20.661Z,617.00
2023-03-11T02:31:20.687Z,812.00
2023-03-11T02:32:20.786Z,833.00
2023-03-11T02:33:20.735Z,991.00
2023-03-11T05:20:28.963Z,2724.00
2023-03-11T05:21:29.016Z,2643.00
2023-03-11T05:22:29.078Z,2399.00
2023-03-11T05:23:29.116Z,2195.00
2023-03-11T05:24:29.145Z,1912.00
2023-03-11T05:25:29.171Z,1648.00
2023-03-11T05:26:29.193Z,1545.00
2023-03-11T05:27:29.198Z,1914.00
2023-03-11T05:28:29.218Z,2308.00
2023-03-11T05:29:29.247Z,2637.00
2023-03-11T05:30:29.273Z,2809.00
2023-03-11T05:31:29.395Z,2848.00
2023-03-11T05:32:29.352Z,2822.00
2023-03-11T05:33:29.323Z,2713.00
2023-03-11T05:34:29.343Z,2808.00
2023-03-11T05:35:29.368Z,3091.00
2023-03-11T05:36:29.416Z,2908.00
2023-03-11T05:37:29.472Z,3029.00
2023-03-11T05:38:29.537Z,2661.00
2023-03-11T05:39:29.606Z,2654.00
2023-03-11T05:40:29.657Z,2712.00
2023-03-11T05:41:29.717Z,2857.00
2023-03-11T05:42:29.772Z,2851.00
2023-03-11T05:43:29.887Z,2684.00
2023-03-11T05:44:29.875Z,2502.00
2023-03-11T05:45:29.898Z,2491.00
2023-03-11T05:46:29.990Z,2664.00
2023-03-11T05:47:29.970Z,2452.00
2023-03-11T05:48:30.027Z,2764.00
2023-03-11T05:49:30.055Z,2902.00
2023-03-11T05:50:30.077Z,2833.00
2023-03-11T05:51:30.111Z,2890.00
2023-03-11T05:52:30.195Z,2778.00
2023-03-11T05:53:30.233Z,2850.00
2023-03-11T05:54:30.254Z,2948.00
2023-03-11T05:55:30.287Z,2902.00
2023-03-11T05:56:30.335Z,2479.00
2023-03-11T05:57:30.388Z,2140.00
2023-03-11T05:58:30.476Z,1908.00
2023-03-11T05:59:30.502Z,1738.00
2023-03-11T06:00:30.537Z,1798.00
2023-03-11T06:01:30.614Z,2259.00
2023-03-11T06:02:30.703Z,2508.00
2023-03-11T06:03:30.807Z,2316.00
2023-03-11T06:04:31.033Z,2095.00
2023-03-11T06:05:30.975Z,2020.00
2023-03-11T06:06:31.033Z,1958.00
2023-03-11T06:07:31.171Z,2073.00
2023-03-11T06:08:31.148Z,2190.00
2023-03-11T06:09:31.213Z,1924.00
2023-03-11T06:10:31.309Z,1705.00
2023-03-11T06:11:31.415Z,1630.00
2023-03-11T06:12:31.493Z,1396.00
2023-03-11T06:13:31.576Z,1344.00
2023-03-11T06:14:31.690Z,1394.00
2023-03-11T06:15:31.769Z,1534.00
2023-03-11T06:16:31.889Z,1545.00
2023-03-11T06:17:31.945Z,1426.00
2023-03-11T06:18:32.019Z,1324.00
2023-03-11T06:19:32.087Z,1318.00
2023-03-11T06:20:32.151Z,1356.00
2023-03-11T06:21:32.221Z,1532.00
2023-03-11T06:22:32.281Z,1473.00
2023-03-11T06:23:32.396Z,1699.00
2023-03-11T06:24:32.368Z,2231.00
2023-03-11T06:25:32.424Z,2450.00
2023-03-11T06:26:32.471Z,2306.00
2023-03-11T06:27:32.527Z,2042.00
2023-03-11T06:28:32.569Z,1704.00
2023-03-11T06:29:32.619Z,1529.00
2023-03-11T06:30:32.663Z,1228.00
2023-03-11T06:31:32.796Z,1159.00
2023-03-11T06:32:32.784Z,1138.00
2023-03-11T06:33:32.791Z,1178.00
2023-03-11T06:34:32.815Z,1399.00
2023-03-11T06:35:32.890Z,1491.00
2023-03-11T06:36:32.867Z,1578.00
2023-03-11T06:37:32.879Z,1785.00
2023-03-11T06:38:32.903Z,2112.00
2023-03-11T06:39:32.944Z,1773.00
2023-03-11T06:40:33.006Z,1468.00
2023-03-11T06:41:33.110Z,1176.00
2023-03-11T06:42:33.193Z,1165.00
2023-03-11T06:44:33.372Z,1115.00
2023-03-11T06:45:33.472Z,978.00
2023-03-11T06:46:33.495Z,913.00
2023-03-11T06:47:33.573Z,739.00
2023-03-11T06:48:33.661Z,666.00
2023-03-11T08:11:39.120Z,1485.00
2023-03-11T08:12:39.247Z,1296.00
2023-03-11T08:13:39.559Z,1142.00
2023-03-11T08:14:39.736Z,1056.00
2023-03-11T08:15:39.897Z,1137.00
2023-03-11T08:16:40.033Z,1363.00
2023-03-11T08:17:40.300Z,1602.00
2023-03-11T08:18:40.442Z,1782.00
2023-03-11T08:19:40.701Z,1555.00
2023-03-11T08:20:40.854Z,1361.00
2023-03-11T08:21:41.073Z,1289.00
2023-03-11T08:22:55.616Z,1138.00
2023-03-11T08:23:42.280Z,1116.00
2023-03-11T08:24:41.206Z,1065.00
2023-03-11T08:25:41.182Z,776.00
2023-03-11T08:26:41.181Z,667.00
2023-03-11T08:27:41.158Z,724.00
2023-03-11T08:28:41.148Z,747.00
2023-03-11T08:29:41.136Z,755.00
2023-03-11T08:30:42.097Z,595.00
2023-03-11T08:31:41.107Z,610.00
2023-03-11T08:32:41.147Z,562.00
2023-03-11T08:33:41.207Z,561.00
2023-03-11T08:34:41.390Z,497.00
2023-03-11T08:35:41.590Z,479.00
2023-03-11T08:36:41.817Z,500.00
2023-03-11T08:37:42.043Z,625.00
2023-03-11T08:38:42.257Z,630.00
2023-03-11T08:39:42.400Z,730.00
2023-03-11T08:40:42.556Z,756.00
2023-03-11T08:41:42.743Z,926.00
2023-03-11T08:42:43.831Z,758.00
2023-03-11T08:43:42.935Z,595.00
2023-03-11T08:44:42.930Z,579.00
2023-03-11T08:45:42.958Z,598.00
2023-03-11T08:46:43.002Z,662.00
2023-03-11T08:47:42.950Z,691.00
2023-03-11T08:48:42.960Z,685.00
2023-03-11T08:49:42.963Z,786.00
2023-03-11T08:50:53.396Z,775.00
2023-03-11T08:51:43.942Z,756.00
2023-03-11T08:52:42.919Z,758.00
2023-03-11T08:53:42.909Z,700.00
2023-03-11T08:54:42.882Z,623.00
2023-03-11T08:55:42.858Z,571.00
2023-03-11T08:56:42.856Z,586.00
2023-03-11T08:57:42.852Z,592.00
2023-03-11T08:58:42.850Z,582.00
2023-03-11T08:59:42.828Z,568.00
2023-03-11T09:00:42.811Z,578.00
2023-03-11T09:01:42.788Z,574.00
2023-03-11T09:02:42.838Z,581.00
2023-03-11T09:03:42.774Z,545.00
2023-03-11T09:04:42.762Z,554.00
2023-03-11T09:05:42.827Z,631.00
2023-03-11T09:06:42.868Z,662.00
2023-03-11T09:07:42.911Z,631.00
2023-03-11T09:08:42.966Z,609.00
2023-03-11T09:09:43.027Z,588.00
2023-03-11T09:10:43.070Z,562.00
2023-03-11T09:11:43.107Z,533.00
2023-03-11T09:12:43.171Z,534.00
2023-03-11T09:13:43.238Z,578.00
2023-03-11T09:14:43.253Z,578.00
2023-03-11T09:15:43.289Z,594.00
2023-03-11T09:16:43.321Z,584.00
2023-03-11T09:17:43.333Z,572.00
2023-03-11T09:18:43.345Z,571.00
2023-03-11T09:19:43.383Z,593.00
2023-03-11T09:20:43.427Z,606.00
2023-03-11T09:21:43.448Z,611.00
2023-03-11T09:22:43.481Z,633.00
2023-03-11T09:23:44.548Z,616.00
2023-03-11T09:24:43.599Z,621.00
2023-03-11T09:25:43.626Z,546.00
2023-03-11T09:26:43.700Z,515.00
2023-03-11T09:27:43.751Z,499.00
2023-03-11T09:28:43.818Z,510.00
2023-03-11T09:29:43.889Z,606.00
2023-03-11T09:30:43.948Z,587.00
2023-03-11T09:31:44.096Z,531.00
2023-03-11T09:32:44.101Z,511.00
2023-03-11T09:33:44.127Z,585.00
2023-03-11T09:34:44.180Z,536.00
2023-03-11T09:35:44.264Z,535.00
2023-03-11T09:36:44.263Z,504.00
2023-03-11T09:37:44.290Z,506.00
2023-03-11T09:38:44.327Z,534.00
2023-03-11T09:39:44.339Z,500.00
2023-03-11T09:40:46.873Z,495.00
2023-03-11T09:41:57.146Z,513.00
2023-03-11T09:42:45.509Z,514.00
2023-03-11T09:43:44.497Z,519.00
2023-03-11T09:45:44.464Z,482.00
2023-03-11T09:46:44.527Z,451.00
2023-03-11T09:47:44.423Z,527.00
2023-03-11T09:48:44.401Z,526.00
2023-03-11T09:49:44.381Z,559.00
2023-03-11T09:50:44.359Z,509.00
2023-03-11T09:51:44.337Z,529.00
2023-03-11T11:32:49.052Z,504.00
2023-03-11T11:33:49.113Z,497.00
2023-03-11T11:34:49.370Z,471.00
2023-03-11T11:35:49.547Z,513.00
2023-03-11T11:36:49.649Z,502.00
2023-03-11T11:37:49.813Z,530.00
2023-03-11T11:38:50.072Z,606.00
2023-03-11T11:39:50.273Z,636.00
2023-03-11T11:40:50.481Z,559.00
2023-03-11T11:41:50.674Z,500.00
2023-03-11T11:42:50.891Z,571.00
2023-03-11T11:43:51.084Z,604.00
2023-03-11T11:44:51.296Z,580.00
2023-03-11T11:45:51.558Z,577.00
2023-03-11T11:46:51.641Z,571.00
2023-03-11T11:47:51.741Z,612.00
2023-03-11T11:48:51.897Z,573.00
2023-03-11T11:49:52.035Z,576.00
2023-03-11T11:50:52.196Z,614.00
2023-03-11T11:51:52.320Z,593.00
2023-03-11T11:52:52.508Z,723.00
2023-03-11T11:53:52.639Z,1023.00
2023-03-11T11:54:52.803Z,852.00
2023-03-11T11:55:53.035Z,732.00
2023-03-11T11:56:53.221Z,647.00
2023-03-11T11:57:53.420Z,620.00
2023-03-11T11:58:53.573Z,519.00
2023-03-11T11:59:54.010Z,438.00
2023-03-11T12:00:53.662Z,413.00
2023-03-11T12:01:53.734Z,421.00
2023-03-11T12:02:53.798Z,452.00
2023-03-11T12:03:53.902Z,505.00
2023-03-11T12:04:53.913Z,549.00
2023-03-11T12:05:56.131Z,607.00
2023-03-11T12:06:54.000Z,621.00
2023-03-11T12:07:53.996Z,557.00
2023-03-11T12:08:54.017Z,498.00
2023-03-11T12:09:54.019Z,514.00
2023-03-11T12:10:54.015Z,643.00
2023-03-11T12:11:53.998Z,1013.00
2023-03-11T12:12:54.015Z,821.00
2023-03-11T12:13:54.031Z,677.00
2023-03-11T12:14:54.045Z,747.00
2023-03-11T12:15:54.072Z,620.00
2023-03-11T12:16:54.061Z,521.00
2023-03-11T12:17:54.062Z,520.00
2023-03-11T12:18:54.070Z,492.00
2023-03-11T12:19:54.087Z,570.00
2023-03-11T12:20:54.096Z,805.00
2023-03-11T12:21:54.261Z,897.00
2023-03-11T12:22:54.091Z,825.00
2023-03-11T12:23:55.149Z,599.00
2023-03-11T12:24:54.105Z,591.00
2023-03-11T12:25:54.117Z,687.00
2023-03-11T12:26:54.134Z,684.00
2023-03-11T12:27:54.133Z,620.00
2023-03-11T12:28:54.132Z,804.00
2023-03-11T12:29:54.127Z,673.00
2023-03-11T12:30:54.149Z,620.00
2023-03-11T12:31:54.155Z,500.00
2023-03-11T12:32:54.280Z,533.00
2023-03-11T12:33:54.151Z,637.00
2023-03-11T12:34:54.138Z,859.00
2023-03-11T12:35:54.146Z,836.00
2023-03-11T12:36:54.141Z,885.00
2023-03-11T12:37:54.113Z,794.00
2023-03-11T12:38:54.120Z,654.00
2023-03-11T12:39:54.111Z,557.00
2023-03-11T12:40:54.115Z,551.00
2023-03-11T12:41:54.122Z,600.00
2023-03-11T12:42:54.108Z,775.00
2023-03-11T12:43:54.100Z,886.00
2023-03-11T12:44:54.122Z,900.00
2023-03-11T12:45:54.119Z,861.00
2023-03-11T12:46:54.199Z,587.00
2023-03-11T12:47:54.131Z,537.00
2023-03-11T12:48:54.132Z,491.00
2023-03-11T12:49:54.139Z,488.00
2023-03-11T12:50:54.164Z,513.00
2023-03-11T12:51:54.174Z,553.00
2023-03-11T12:52:54.221Z,589.00
2023-03-11T12:53:54.226Z,605.00
2023-03-11T12:54:54.273Z,565.00
2023-03-11T12:55:54.322Z,484.00
2023-03-11T12:56:54.376Z,497.00
2023-03-11T12:57:54.447Z,501.00
2023-03-11T12:58:54.501Z,520.00
2023-03-11T12:59:54.578Z,600.00
2023-03-11T13:00:54.658Z,629.00
2023-03-11T13:01:54.800Z,597.00
2023-03-11T13:02:54.820Z,598.00
2023-03-11T13:03:54.849Z,642.00
2023-03-11T13:04:54.915Z,614.00
2023-03-11T13:05:54.972Z,553.00
2023-03-11T13:06:55.003Z,542.00
2023-03-11T13:07:55.053Z,515.00
2023-03-11T13:08:55.206Z,510.00
2023-03-11T13:09:55.390Z,515.00
2023-03-11T13:10:55.562Z,516.00
2023-03-11T13:11:55.737Z,546.00
2023-03-11T13:12:55.841Z,567.00
2023-03-11T13:13:55.920Z,553.00
2023-03-11T13:14:55.968Z,489.00
2023-03-11T13:15:56.049Z,473.00
2023-03-11T13:16:56.066Z,508.00
2023-03-11T13:17:56.122Z,552.00
2023-03-11T13:18:56.159Z,625.00
2023-03-11T13:19:56.228Z,732.00
2023-03-11T13:20:56.299Z,688.00
2023-03-11T13:21:56.328Z,637.00
2023-03-11T13:22:56.345Z,833.00
2023-03-11T13:23:56.386Z,667.00
2023-03-11T13:24:56.435Z,808.00
2023-03-11T13:25:56.503Z,829.00
2023-03-11T13:26:56.555Z,831.00
2023-03-11T13:27:56.595Z,805.00
2023-03-11T13:28:56.641Z,751.00
2023-03-11T13:29:56.679Z,815.00
2023-03-11T13:30:56.746Z,752.00
2023-03-11T13:31:56.781Z,651.00
2023-03-11T13:32:56.828Z,657.00
2023-03-11T13:33:56.846Z,645.00
2023-03-11T13:34:56.882Z,737.00
2023-03-11T13:35:56.995Z,656.00
2023-03-11T13:36:57.026Z,639.00
2023-03-11T14:22:59.075Z,1108.00
2023-03-11T14:23:59.326Z,1188.00
2023-03-11T14:24:59.431Z,1178.00
2023-03-11T14:25:59.623Z,1314.00
2023-03-11T14:26:59.791Z,1345.00
2023-03-11T14:28:00.001Z,1308.00
2023-03-11T14:29:00.177Z,1324.00
2023-03-11T14:30:00.340Z,1393.00
2023-03-11T14:31:00.496Z,1416.00
2023-03-11T14:32:00.790Z,1230.00
2023-03-11T18:46:08.980Z,7636.00
2023-03-11T19:00:08.952Z,8097.00
2023-03-11T19:01:09.062Z,8035.00
2023-03-11T19:02:09.110Z,8022.00
2023-03-11T19:03:09.157Z,8012.00
2023-03-11T19:04:09.192Z,8074.00
2023-03-11T19:05:09.376Z,8136.00
2023-03-11T19:06:09.309Z,8161.00
2023-03-11T19:07:09.367Z,8195.00
2023-03-11T19:08:09.448Z,8246.00
2023-03-11T19:09:09.534Z,8201.00
2023-03-11T19:10:09.640Z,8157.00
2023-03-11T19:11:09.750Z,8199.00
2023-03-11T19:12:09.847Z,8208.00
2023-03-11T19:13:09.957Z,8252.00
2023-03-11T19:14:10.068Z,8331.00
2023-03-11T19:15:10.160Z,8335.00
2023-03-11T19:16:10.283Z,8316.00
2023-03-11T19:17:10.439Z,8260.00
2023-03-11T19:18:10.504Z,8306.00
2023-03-11T19:19:11.947Z,8312.00
2023-03-11T19:20:10.686Z,8341.00
2023-03-11T19:21:10.831Z,8307.00
2023-03-11T19:22:10.884Z,8246.00
2023-03-11T19:23:10.947Z,8265.00
2023-03-11T19:24:11.037Z,8234.00
2023-03-11T19:25:11.108Z,8264.00
2023-03-11T19:26:11.200Z,8249.00
2023-03-11T19:27:11.220Z,8263.00
2023-03-11T19:28:11.321Z,8243.00
2023-03-11T19:29:11.424Z,8318.00
2023-03-11T19:30:11.481Z,8286.00
2023-03-11T19:31:11.596Z,8275.00
2023-03-11T19:32:11.587Z,8278.00
2023-03-11T19:33:11.671Z,8341.00
2023-03-11T19:34:11.745Z,8335.00
2023-03-11T19:35:11.822Z,8326.00
2023-03-11T19:36:11.961Z,8332.00
2023-03-11T19:37:12.029Z,8379.00
2023-03-11T19:38:12.103Z,8342.00
2023-03-11T19:39:12.210Z,8364.00
2023-03-11T19:40:12.308Z,8399.00
2023-03-11T19:42:12.479Z,8400.00
2023-03-11T20:20:19.062Z,8204.00
2023-03-11T20:21:19.272Z,8189.00
2023-03-11T20:22:19.481Z,8181.00
2023-03-11T20:23:19.624Z,8144.00
2023-03-11T20:24:19.892Z,8133.00
2023-03-11T20:25:20.033Z,8145.00
2023-03-11T20:26:20.159Z,8107.00
2023-03-11T20:27:20.281Z,8109.00
2023-03-11T20:28:20.293Z,8115.00
2023-03-11T20:29:20.353Z,8129.00
2023-03-11T20:30:20.428Z,8157.00
2023-03-11T20:31:20.545Z,8287.00
2023-03-11T20:32:20.468Z,8293.00
2023-03-11T20:33:20.511Z,8246.00
2023-03-11T20:34:20.636Z,8180.00
2023-03-11T20:35:20.600Z,8155.00
2023-03-11T20:36:20.689Z,8177.00
2023-03-11T20:37:20.656Z,8203.00
2023-03-11T20:38:20.774Z,8162.00
2023-03-11T20:39:20.795Z,8104.00
2023-03-11T20:40:20.900Z,8074.00
2023-03-11T20:41:20.874Z,8104.00
2023-03-11T20:42:20.991Z,8112.00
2023-03-11T20:43:21.080Z,8064.00
2023-03-11T20:44:21.190Z,8059.00
2023-03-11T20:45:21.312Z,8084.00
2023-03-11T20:46:21.360Z,8149.00
2023-03-11T20:47:21.529Z,8148.00
2023-03-11T20:48:21.505Z,8098.00
2023-03-11T20:49:21.699Z,8169.00
2023-03-11T20:50:21.796Z,8267.00
2023-03-11T20:51:21.830Z,8222.00
2023-03-11T20:52:21.906Z,8189.00
2023-03-11T20:53:21.945Z,8186.00
2023-03-11T20:54:22.039Z,8165.00
2023-03-11T20:55:22.061Z,7984.00
2023-03-11T20:56:22.102Z,8039.00
2023-03-11T20:57:22.211Z,8072.00
2023-03-11T20:58:22.304Z,8149.00
2023-03-11T20:59:22.378Z,8093.00
2023-03-11T21:00:22.434Z,8107.00
2023-03-11T21:01:22.695Z,8192.00
2023-03-11T21:02:22.676Z,8147.00
2023-03-11T21:03:22.765Z,8078.00
2023-03-11T21:04:22.742Z,8119.00
2023-03-11T21:05:22.835Z,8102.00
2023-03-11T21:06:22.957Z,7999.00
2023-03-11T21:07:23.079Z,8031.00
2023-03-11T21:08:23.113Z,8108.00
2023-03-11T21:09:23.267Z,8181.00
2023-03-11T21:10:23.290Z,8139.00
2023-03-11T21:11:23.470Z,8125.00
2023-03-11T21:12:23.523Z,8154.00
2023-03-11T21:13:23.685Z,8110.00
2023-03-11T21:14:23.725Z,8078.00
2023-03-11T21:15:23.813Z,8033.00
2023-03-11T21:16:24.037Z,7958.00
2023-03-11T21:17:24.047Z,7838.00
2023-03-11T21:18:24.126Z,7882.00
2023-03-11T21:19:24.283Z,7937.00
2023-03-11T21:20:24.322Z,7827.00
2023-03-11T21:21:24.320Z,7840.00
2023-03-11T21:22:24.403Z,7733.00
2023-03-11T21:23:24.464Z,7662.00
2023-03-11T21:24:24.612Z,7660.00
2023-03-11T21:25:24.695Z,7711.00
2023-03-11T21:26:24.728Z,7681.00
2023-03-11T21:27:24.849Z,7696.00
2023-03-11T21:28:24.870Z,7669.00
2023-03-11T21:34:25.422Z,7543.00
2023-03-11T21:36:25.732Z,7536.00
2023-03-11T22:16:29.047Z,7234.00
2023-03-11T22:17:29.232Z,7278.00
2023-03-11T22:18:29.296Z,7236.00
2023-03-11T22:19:29.329Z,7242.00
2023-03-11T22:20:29.330Z,7273.00
2023-03-11T22:21:29.548Z,7223.00
2023-03-11T22:22:29.469Z,7192.00
2023-03-11T22:23:29.547Z,7295.00
2023-03-11T22:24:29.649Z,7364.00
2023-03-11T22:25:29.726Z,7328.00
2023-03-11T22:26:29.821Z,7311.00
2023-03-11T22:27:29.918Z,7261.00
2023-03-11T22:28:29.988Z,7271.00
2023-03-11T22:29:30.082Z,7234.00
2023-03-11T22:30:30.177Z,7278.00
2023-03-11T22:31:30.321Z,7227.00
2023-03-11T22:32:30.392Z,7189.00
2023-03-11T22:33:30.436Z,7095.00
2023-03-11T22:34:30.522Z,7114.00
2023-03-11T22:35:30.650Z,7126.00
2023-03-11T22:36:30.682Z,7147.00
2023-03-11T22:37:30.774Z,7162.00
2023-03-11T22:38:30.863Z,7181.00
2023-03-11T22:39:30.994Z,7218.00
2023-03-11T22:40:31.054Z,7122.00
2023-03-11T22:41:31.163Z,7129.00
2023-03-11T22:42:31.281Z,7280.00
2023-03-11T22:43:31.371Z,7269.00
2023-03-11T22:44:31.473Z,7205.00
2023-03-11T22:45:31.542Z,7172.00
2023-03-11T22:46:31.621Z,7274.00
2023-03-11T22:47:31.701Z,7284.00
2023-03-11T22:48:31.789Z,7319.00
2023-03-11T22:49:31.876Z,7326.00
2023-03-11T22:50:31.991Z,7335.00
2023-03-11T22:51:32.053Z,7181.00
2023-03-11T22:52:32.128Z,7139.00
2023-03-11T22:53:32.211Z,7199.00
2023-03-11T22:54:32.328Z,7240.00
2023-03-11T22:55:32.361Z,7210.00
2023-03-11T22:56:32.440Z,7192.00
2023-03-11T22:57:32.544Z,7135.00
2023-03-11T22:59:32.660Z,7136.00
2023-03-11T23:00:32.749Z,7143.00
2023-03-11T23:01:32.906Z,6986.00
2023-03-11T23:02:32.923Z,6938.00
2023-03-11T23:03:33.109Z,7020.00
2023-03-11T23:04:33.076Z,7146.00
2023-03-11T23:05:33.149Z,7271.00
2023-03-11T23:06:33.221Z,7256.00
2023-03-11T23:07:33.302Z,7236.00
2023-03-11T23:08:33.375Z,7125.00
2023-03-11T23:09:33.451Z,7098.00
2023-03-11T23:10:33.529Z,7129.00
2023-03-11T23:11:33.603Z,7114.00
2023-03-11T23:12:33.707Z,7162.00
2023-03-11T23:13:33.791Z,7206.00
2023-03-11T23:14:44.040Z,7176.00
2023-03-11T23:15:34.910Z,7146.00
2023-03-11T23:16:33.980Z,7161.00
2023-03-11T23:17:34.028Z,7196.00
2023-03-11T23:18:34.002Z,7282.00
2023-03-11T23:19:34.036Z,7375.00
2023-03-11T23:20:34.063Z,7338.00
2023-03-11T23:21:34.120Z,7183.00
2023-03-11T23:22:34.144Z,7077.00
2023-03-11T23:23:34.188Z,7088.00
2023-03-11T23:24:34.257Z,7110.00
2023-03-11T23:25:34.296Z,7131.00
2023-03-11T23:26:34.363Z,7180.00
2023-03-11T23:27:34.463Z,7095.00
2023-03-11T23:28:34.548Z,7110.00
2023-03-11T23:29:34.626Z,7175.00
2023-03-11T23:30:34.757Z,7113.00
2023-03-11T23:31:34.799Z,7087.00
2023-03-11T23:32:34.915Z,7128.00
2023-03-11T23:33:34.978Z,7255.00
2023-03-11T23:34:35.056Z,7225.00
2023-03-11T23:35:35.166Z,7093.00
2023-03-11T23:36:35.223Z,7050.00
2023-03-11T23:37:35.304Z,7007.00
2023-03-11T23:38:35.395Z,7036.00
2023-03-11T23:39:35.465Z,7081.00
2023-03-11T23:40:35.570Z,7179.00
2023-03-11T23:41:35.645Z,7230.00
2023-03-11T23:42:35.727Z,7270.00
2023-03-11T23:43:35.819Z,7224.00
2023-03-11T23:44:35.929Z,7197.00
2023-03-11T23:45:35.999Z,7188.00
2023-03-11T23:46:36.110Z,7211.00
2023-03-11T23:47:36.176Z,7248.00
2023-03-11T23:48:36.256Z,7137.00
2023-03-11T23:49:36.344Z,7012.00
2023-03-11T23:50:36.416Z,6917.00
2023-03-11T23:51:36.523Z,6865.00
2023-03-11T23:52:36.614Z,6881.00
2023-03-11T23:53:36.696Z,6878.00
2023-03-11T23:54:36.795Z,6772.00
2023-03-11T23:55:36.893Z,6719.00
2023-03-11T23:57:37.086Z,6821.00
2023-03-11T23:58:37.174Z,6840.00
2023-03-11T23:59:37.257Z,6907.00
